Time;durP1;ratioP1;P1;durP2;ratioP2;P2;SDS_P1;SDS_P2;PMS_P1;PMS_P2;Temp;Humidity;BMP_temperature;BMP_pressure;BME280_temperature;BME280_humidity;BME280_pressure;Samples;Min_cycle;Max_cycle;Signal;HPM_P1;HPM_P2
2023/10/23 00:00:18;;;;;;;;;;;;;;;25.88;42.61;93896.81;5024634;28;7348;-62
2023/10/23 00:02:45;;;;;;;;;;;;;;;25.85;42.83;93906.13;5038323;28;6994;-62
2023/10/23 00:05:29;;;;;;;;;;;;;;;25.86;42.42;93902.09;5017015;28;7275;-65
2023/10/23 00:08:12;;;;;;;;;;;;;;;25.84;42.62;93914.91;5038528;28;7054;-65
2023/10/23 00:10:38;;;;;;;;;;;;;;;25.83;42.78;93905.16;5010787;28;7230;-65
2023/10/23 00:13:06;;;;;;;;;;;;;;;25.84;42.75;93899.13;5030714;28;7230;-65
2023/10/23 00:15:42;;;;;;;;;;;;;;;25.81;42.42;93894.69;5014747;28;7813;-65
2023/10/23 00:18:08;;;;;;;;;;;;;;;25.81;42.21;93905.69;5043156;28;7894;-65
2023/10/23 00:20:34;;;;;;;;;;;;;;;25.78;42.97;93912.25;5021797;28;9085;-65
2023/10/23 00:23:06;;;;;;;;;;;;;;;25.76;42.77;93912.03;5029225;28;9066;-65
2023/10/23 00:25:32;;;;;;;;;;;;;;;25.75;42.96;93909.81;5043522;28;7066;-65
2023/10/23 00:27:58;;;;;;;;;;;;;;;25.75;43.16;93918.06;5041894;28;6996;-65
2023/10/23 00:30:25;;;;;;;;;;;;;;;25.73;43.10;93913.06;5038428;28;7233;-65
2023/10/23 00:32:51;;;;;;;;;;;;;;;25.74;42.58;93920.06;5029375;28;7073;-65
2023/10/23 00:35:23;;;;;;;;;;;;;;;25.72;42.43;93925.38;5015336;28;7234;-65
2023/10/23 00:37:50;;;;;;;;;;;;;;;25.69;42.89;93920.13;5039294;28;9113;-65
2023/10/23 00:40:17;;;;;;;;;;;;;;;25.71;42.29;93920.38;5027715;28;8837;-65
2023/10/23 00:42:43;;;;;;;;;;;;;;;25.68;42.40;93916.66;5029110;28;7157;-65
2023/10/23 00:45:13;;;;;;;;;;;;;;;25.69;42.31;93912.63;5021849;28;7049;-65
2023/10/23 00:47:44;;;;;;;;;;;;;;;25.69;43.01;93918.13;5031570;28;7531;-65
2023/10/23 00:50:20;;;;;;;;;;;;;;;25.68;42.99;93915.91;5040304;28;9112;-65
2023/10/23 00:52:54;;;;;;;;;;;;;;;25.66;42.90;93912.94;5031491;28;7191;-65
2023/10/23 00:55:22;;;;;;;;;;;;;;;25.63;43.04;93909.22;5024929;28;8973;-65
2023/10/23 00:57:53;;;;;;;;;;;;;;;25.60;42.45;93912.28;5031545;28;8799;-65
2023/10/23 01:00:24;;;;;;;;;;;;;;;25.59;42.36;93914.28;5022276;28;6990;-65
2023/10/23 01:02:56;;;;;;;;;;;;;;;25.60;43.21;93921.25;5018174;28;7925;-65
2023/10/23 01:05:23;;;;;;;;;;;;;;;25.59;42.69;93916.28;5037195;28;7271;-65
2023/10/23 01:07:57;;;;;;;;;;;;;;;25.58;43.03;93907.28;5048348;28;6994;-65
2023/10/23 01:10:25;;;;;;;;;;;;;;;25.56;42.86;93904.31;5032051;28;7172;-65
2023/10/23 01:12:57;;;;;;;;;;;;;;;25.54;42.24;93908.84;5022875;28;9082;-65
2023/10/23 01:15:24;;;;;;;;;;;;;;;25.55;42.44;93904.84;5023499;28;7003;-56
2023/10/23 01:17:50;;;;;;;;;;;;;;;25.53;43.09;93897.09;5037932;28;7216;-56
2023/10/23 01:20:21;;;;;;;;;;;;;;;25.53;42.48;93910.88;5036545;28;8078;-56
2023/10/23 01:22:47;;;;;;;;;;;;;;;25.50;42.55;93906.41;5032229;28;7565;-56
2023/10/23 01:25:20;;;;;;;;;;;;;;;25.51;43.43;93901.63;5045199;28;7316;-56
2023/10/23 01:27:47;;;;;;;;;;;;;;;25.49;42.60;93910.41;5028162;28;9098;-56
2023/10/23 01:30:28;;;;;;;;;;;;;;;25.45;43.51;93904.44;5020827;28;7892;-56
2023/10/23 01:33:07;;;;;;;;;;;;;;;25.45;42.66;93898.94;5017349;28;6963;-56
2023/10/23 01:35:33;;;;;;;;;;;;;;;25.45;43.04;93890.69;5040737;28;8777;-56
2023/10/23 01:38:01;;;;;;;;;;;;;;;25.44;42.66;93894.72;5041017;28;6990;-56
2023/10/23 01:40:27;;;;;;;;;;;;;;;25.45;43.05;93884.47;5037716;28;7613;-56
2023/10/23 01:42:54;;;;;;;;;;;;;;;25.44;43.49;93891.97;5023639;28;7149;-56
2023/10/23 01:45:28;;;;;;;;;;;;;;;25.44;42.65;93891.97;5017224;28;7142;-56
2023/10/23 01:47:57;;;;;;;;;;;;;;;25.45;42.96;93904.44;5024829;28;8844;-56
2023/10/23 01:50:24;;;;;;;;;;;;;;;25.43;43.14;93901.47;5039953;28;7016;-56
2023/10/23 01:53:22;;;;;;;;;;;;;;;25.43;43.20;93901.47;5013752;28;7187;-56
2023/10/23 01:55:56;;;;;;;;;;;;;;;25.43;42.59;93898.72;5001511;28;7196;-56
2023/10/23 01:58:33;;;;;;;;;;;;;;;25.44;43.43;93908.50;5000041;28;7321;-56
2023/10/23 02:01:29;;;;;;;;;;;;;;;25.43;43.40;93898.72;5010404;28;7010;-56
2023/10/23 02:03:55;;;;;;;;;;;;;;;25.43;42.98;93895.97;4948519;28;7058;-56
2023/10/23 02:06:32;;;;;;;;;;;;;;;25.43;42.65;93893.97;4940566;28;7229;-56
2023/10/23 02:09:33;;;;;;;;;;;;;;;25.43;43.28;93893.22;4957143;28;7257;-56
2023/10/23 02:12:00;;;;;;;;;;;;;;;25.39;42.85;93888.00;4958269;28;7050;-56
2023/10/23 02:14:26;;;;;;;;;;;;;;;25.40;42.68;93886.00;4951241;28;7102;-56
2023/10/23 02:16:53;;;;;;;;;;;;;;;25.38;43.06;93888.53;4949848;28;9197;-56
2023/10/23 02:19:19;;;;;;;;;;;;;;;25.37;43.14;93889.78;4934270;28;6997;-56
2023/10/23 02:21:49;;;;;;;;;;;;;;;25.37;43.18;93881.53;4950092;28;7440;-56
2023/10/23 02:24:17;;;;;;;;;;;;;;;25.34;43.41;93879.78;4950103;28;6980;-56
2023/10/23 02:26:43;;;;;;;;;;;;;;;25.36;42.62;93880.78;4950008;28;7169;-56
2023/10/23 02:29:09;;;;;;;;;;;;;;;25.38;43.40;93881.00;4950236;28;9090;-56
2023/10/23 02:31:36;;;;;;;;;;;;;;;25.38;43.26;93872.72;4934593;28;7275;-56
2023/10/23 02:34:04;;;;;;;;;;;;;;;25.36;43.09;93872.50;4960588;28;9098;-56
2023/10/23 02:36:34;;;;;;;;;;;;;;;25.35;43.03;93868.28;4960072;28;7636;-56
2023/10/23 02:39:02;;;;;;;;;;;;;;;25.34;43.36;93869.53;4934328;29;7243;-56
2023/10/23 02:41:30;;;;;;;;;;;;;;;25.37;42.53;93882.28;4952920;28;9145;-56
2023/10/23 02:43:59;;;;;;;;;;;;;;;25.37;42.77;93878.75;4953040;28;7384;-56
2023/10/23 02:46:24;;;;;;;;;;;;;;;25.35;42.96;93878.53;5006852;28;7042;-56
2023/10/23 02:48:50;;;;;;;;;;;;;;;25.33;42.60;93870.81;5036142;28;7264;-56
2023/10/23 02:51:19;;;;;;;;;;;;;;;25.32;42.95;93858.31;5027224;28;9199;-56
2023/10/23 02:53:45;;;;;;;;;;;;;;;25.31;43.20;93862.34;5031465;28;7238;-56
2023/10/23 02:56:12;;;;;;;;;;;;;;;25.29;42.99;93864.84;5030148;28;6985;-56
2023/10/23 02:58:41;;;;;;;;;;;;;;;25.28;43.26;93873.63;5027800;28;7268;-56
2023/10/23 03:01:15;;;;;;;;;;;;;;;25.23;43.35;93863.44;5027409;28;7605;-56
2023/10/23 03:03:41;;;;;;;;;;;;;;;25.26;43.23;93867.91;5030116;28;7113;-56
2023/10/23 03:06:07;;;;;;;;;;;;;;;25.26;42.69;93856.88;5023124;28;7017;-56
2023/10/23 03:08:33;;;;;;;;;;;;;;;25.23;43.69;93850.41;5044358;28;8856;-56
2023/10/23 03:11:06;;;;;;;;;;;;;;;25.23;43.34;93838.66;5031742;28;8887;-56
2023/10/23 03:13:33;;;;;;;;;;;;;;;25.23;43.88;93838.66;5025331;28;7290;-56
2023/10/23 03:16:00;;;;;;;;;;;;;;;25.27;43.06;93837.09;5025538;28;7252;-56
2023/10/23 03:18:27;;;;;;;;;;;;;;;25.26;43.13;93843.88;5027475;28;8980;-56
2023/10/23 03:20:53;;;;;;;;;;;;;;;25.24;43.32;93840.16;5029046;28;7247;-55
2023/10/23 03:23:20;;;;;;;;;;;;;;;25.24;42.91;93846.41;5028367;28;7454;-56
2023/10/23 03:25:48;;;;;;;;;;;;;;;25.22;43.29;93848.94;5031999;28;7021;-56
2023/10/23 03:28:17;;;;;;;;;;;;;;;25.23;43.61;93847.66;5020519;28;9319;-56
2023/10/23 03:30:44;;;;;;;;;;;;;;;25.24;43.82;93856.66;5017271;28;7060;-56
2023/10/23 03:33:13;;;;;;;;;;;;;;;25.23;43.15;93853.16;5039644;28;7748;-56
2023/10/23 03:35:45;;;;;;;;;;;;;;;25.21;43.23;93857.69;5035696;28;7471;-60
2023/10/23 03:38:23;;;;;;;;;;;;;;;25.20;43.45;93851.47;5016333;28;7195;-60
2023/10/23 03:40:59;;;;;;;;;;;;;;;25.20;42.82;93861.72;5021003;28;7632;-60
2023/10/23 03:43:30;;;;;;;;;;;;;;;25.16;43.15;93855.78;5030600;28;7299;-59
2023/10/23 03:46:02;;;;;;;;;;;;;;;25.21;43.43;93860.47;5021586;28;6955;-60
2023/10/23 03:48:28;;;;;;;;;;;;;;;25.18;42.84;93854.00;5047841;28;6997;-60
2023/10/23 03:51:00;;;;;;;;;;;;;;;25.21;43.30;93857.69;5027401;28;7279;-60
2023/10/23 03:53:27;;;;;;;;;;;;;;;25.19;43.77;93849.22;5029817;28;7533;-60
2023/10/23 03:55:57;;;;;;;;;;;;;;;25.19;43.59;93851.97;5033235;28;7250;-59
2023/10/23 03:58:54;;;;;;;;;;;;;;;25.19;43.72;93851.97;5042929;28;8637;-60
2023/10/23 04:01:31;;;;;;;;;;;;;;;25.19;42.73;93857.47;4971576;28;7014;-60
2023/10/23 04:04:02;;;;;;;;;;;;;;;25.18;42.80;93856.00;4973379;28;6983;-60
2023/10/23 04:06:28;;;;;;;;;;;;;;;25.14;43.88;93858.31;4953548;28;7772;-60
2023/10/23 04:08:54;;;;;;;;;;;;;;;25.13;43.52;93845.81;4969676;28;7064;-60
2023/10/23 04:11:25;;;;;;;;;;;;;;;25.13;43.69;93843.81;4972480;28;8499;-60
2023/10/23 04:13:57;;;;;;;;;;;;;;;25.14;43.64;93836.31;4953774;28;8727;-59
2023/10/23 04:16:23;;;;;;;;;;;;;;;25.14;43.12;93833.56;4966969;28;7239;-60
2023/10/23 04:18:51;;;;;;;;;;;;;;;25.12;43.35;93833.34;4971017;28;6970;-60
2023/10/23 04:21:23;;;;;;;;;;;;;;;25.12;43.45;93827.81;4955920;28;8778;-60
2023/10/23 04:23:52;;;;;;;;;;;;;;;25.10;43.58;93819.34;4972202;28;7106;-61
2023/10/23 04:26:28;;;;;;;;;;;;;;;25.10;43.31;93822.09;4953700;28;8766;-61
2023/10/23 04:28:55;;;;;;;;;;;;;;;25.09;43.23;93823.34;4972610;28;7277;-60
2023/10/23 04:32:00;;;;;;;;;;;;;;;25.11;43.91;93809.81;4963253;28;7267;-60
2023/10/23 04:34:34;;;;;;;;;;;;;;;25.09;43.92;93813.09;4918065;29;7881;-60
2023/10/23 04:37:00;;;;;;;;;;;;;;;25.07;43.65;93806.63;4923088;28;9504;-60
2023/10/23 04:39:36;;;;;;;;;;;;;;;25.10;42.85;93792.56;4986869;28;7158;-60
2023/10/23 04:42:11;;;;;;;;;;;;;;;25.10;43.35;93783.56;4993723;28;7287;-61
2023/10/23 04:44:37;;;;;;;;;;;;;;;25.07;43.67;93773.59;5010979;28;7195;-61
2023/10/23 04:47:18;;;;;;;;;;;;;;;25.07;44.00;93781.84;5002994;28;7230;-60
2023/10/23 04:50:04;;;;;;;;;;;;;;;25.07;43.10;93779.84;4994749;28;9041;-60
2023/10/23 04:52:30;;;;;;;;;;;;;;;25.06;43.23;93783.84;5001490;28;7235;-61
2023/10/23 04:55:00;;;;;;;;;;;;;;;25.05;42.92;93785.16;5011095;28;7057;-54
2023/10/23 04:57:38;;;;;;;;;;;;;;;25.10;43.71;93787.06;5004322;28;7304;-54
2023/10/23 05:00:05;;;;;;;;;;;;;;;25.07;43.96;93781.84;4998968;28;7330;-55
2023/10/23 05:02:34;;;;;;;;;;;;;;;25.03;43.99;93795.94;4993779;28;7226;-55
2023/10/23 05:05:09;;;;;;;;;;;;;;;25.00;43.79;93796.22;5017577;28;7432;-54
2023/10/23 05:07:37;;;;;;;;;;;;;;;25.00;43.85;93804.47;5021126;28;9579;-55
2023/10/23 05:10:07;;;;;;;;;;;;;;;24.98;44.27;93810.50;5038480;28;8211;-55
2023/10/23 05:12:37;;;;;;;;;;;;;;;25.00;44.34;93801.72;5014036;28;7150;-54
2023/10/23 05:15:04;;;;;;;;;;;;;;;25.02;44.54;93794.44;5038509;28;9899;-54
2023/10/23 05:17:36;;;;;;;;;;;;;;;25.08;44.09;93789.59;5021933;28;7273;-55
2023/10/23 05:20:04;;;;;;;;;;;;;;;25.12;44.32;93795.53;5023978;28;9072;-55
2023/10/23 05:22:30;;;;;;;;;;;;;;;25.16;44.21;93789.75;5017889;28;6950;-55
2023/10/23 05:24:59;;;;;;;;;;;;;;;25.23;43.94;93784.34;5024665;28;7203;-55
2023/10/23 05:27:37;;;;;;;;;;;;;;;25.32;44.08;93777.72;5018676;28;7228;-55
2023/10/23 05:30:06;;;;;;;;;;;;;;;25.35;44.39;93776.69;5025034;28;7299;-52
2023/10/23 05:32:37;;;;;;;;;;;;;;;25.40;43.85;93779.34;5031651;28;7277;-53
2023/10/23 05:35:08;;;;;;;;;;;;;;;25.43;43.97;93777.59;5037862;28;7215;-53
2023/10/23 05:37:35;;;;;;;;;;;;;;;25.49;43.26;93780.28;5039584;28;7507;-54
2023/10/23 05:40:04;;;;;;;;;;;;;;;25.51;43.72;93770.22;5018368;28;7497;-54
2023/10/23 05:42:31;;;;;;;;;;;;;;;25.53;43.31;93767.69;5040382;28;7276;-53
2023/10/23 05:44:57;;;;;;;;;;;;;;;25.54;43.15;93763.66;5026007;28;7335;-54
2023/10/23 05:47:28;;;;;;;;;;;;;;;25.58;43.88;93755.81;5011556;28;7227;-54
2023/10/23 05:49:56;;;;;;;;;;;;;;;25.61;43.96;93751.28;5020594;28;9494;-53
2023/10/23 05:52:22;;;;;;;;;;;;;;;25.60;43.48;93750.53;5038526;28;9062;-54
2023/10/23 05:54:51;;;;;;;;;;;;;;;25.65;43.29;93754.47;5023786;28;9139;-54
2023/10/23 05:57:17;;;;;;;;;;;;;;;25.63;43.10;93751.47;5018482;28;7120;-51
2023/10/23 05:59:43;;;;;;;;;;;;;;;25.67;43.47;93765.69;5017760;28;7317;-55
2023/10/23 06:02:10;;;;;;;;;;;;;;;25.69;43.27;93774.16;5018722;28;9087;-53
2023/10/23 06:04:36;;;;;;;;;;;;;;;25.67;43.34;93769.19;5019379;28;9120;-60
2023/10/23 06:07:05;;;;;;;;;;;;;;;25.67;42.91;93771.94;5014074;28;7267;-60
2023/10/23 06:09:34;;;;;;;;;;;;;;;25.69;42.55;93766.66;5035174;28;9438;-61
2023/10/23 06:11:59;;;;;;;;;;;;;;;25.67;42.79;93766.44;5041381;28;9066;-60
2023/10/23 06:14:25;;;;;;;;;;;;;;;25.67;42.75;93766.44;5023415;28;9124;-60
2023/10/23 06:16:52;;;;;;;;;;;;;;;25.67;43.22;93777.44;5030412;28;7115;-60
2023/10/23 06:19:33;;;;;;;;;;;;;;;25.68;42.62;93773.44;5031582;28;7249;-60
2023/10/23 06:22:07;;;;;;;;;;;;;;;25.66;43.16;93769.72;5029768;28;7246;-60
2023/10/23 06:24:44;;;;;;;;;;;;;;;25.67;43.58;93785.72;5041430;28;7253;-60
2023/10/23 06:27:12;;;;;;;;;;;;;;;25.66;43.31;93781.50;5020652;28;7256;-60
2023/10/23 06:29:38;;;;;;;;;;;;;;;25.64;42.92;93773.00;5026079;28;7074;-61
2023/10/23 06:32:11;;;;;;;;;;;;;;;25.66;43.03;93775.97;5030015;28;7471;-61
2023/10/23 06:34:44;;;;;;;;;;;;;;;25.67;43.74;93773.94;5033521;28;8424;-61
2023/10/23 06:37:26;;;;;;;;;;;;;;;25.66;43.82;93753.94;5037859;28;7267;-61
2023/10/23 06:40:09;;;;;;;;;;;;;;;25.68;43.71;93740.38;5050553;28;9224;-60
2023/10/23 06:42:35;;;;;;;;;;;;;;;25.73;43.01;93758.81;5042851;28;7263;-61
2023/10/23 06:45:28;;;;;;;;;;;;;;;25.77;43.50;93755.78;5048864;28;7456;-61
2023/10/23 06:48:15;;;;;;;;;;;;;;;25.82;43.18;93752.16;4962592;28;8180;-61
2023/10/23 06:50:54;;;;;;;;;;;;;;;25.86;43.37;93745.06;4955005;28;7084;-61
2023/10/23 06:53:20;;;;;;;;;;;;;;;25.91;43.26;93741.47;4952758;28;9170;-61
2023/10/23 06:56:02;;;;;;;;;;;;;;;25.95;42.94;93741.91;4955035;28;7246;-61
2023/10/23 06:58:28;;;;;;;;;;;;;;;25.98;42.58;93735.34;4967531;28;8752;-61
2023/10/23 07:01:33;;;;;;;;;;;;;;;26.04;42.85;93738.72;4959736;28;6975;-61
2023/10/23 07:04:00;;;;;;;;;;;;;;;26.03;43.04;93734.47;4937247;28;7018;-61
2023/10/23 07:06:27;;;;;;;;;;;;;;;26.10;42.89;93741.41;4950097;28;7192;-61
2023/10/23 07:08:54;;;;;;;;;;;;;;;26.12;42.56;93736.84;4950835;28;7245;-61
2023/10/23 07:11:29;;;;;;;;;;;;;;;26.14;42.20;93728.06;4951593;28;8831;-61
2023/10/23 07:13:56;;;;;;;;;;;;;;;26.22;42.95;93728.16;4937799;28;8764;-61
2023/10/23 07:16:39;;;;;;;;;;;;;;;26.24;42.86;93729.13;4913857;29;7254;-61
2023/10/23 07:19:05;;;;;;;;;;;;;;;26.29;42.54;93738.56;4925899;28;7059;-61
2023/10/23 07:21:50;;;;;;;;;;;;;;;26.30;42.15;93738.00;4935983;28;8248;-61
2023/10/23 07:24:25;;;;;;;;;;;;;;;26.31;42.21;93736.75;4943415;28;7280;-61
2023/10/23 07:27:04;;;;;;;;;;;;;;;26.33;42.17;93736.97;4984277;28;9120;-61
2023/10/23 07:29:43;;;;;;;;;;;;;;;26.36;42.28;93737.91;4972784;28;7252;-60
2023/10/23 07:32:27;;;;;;;;;;;;;;;26.38;41.94;93736.09;4966531;28;7228;-61
2023/10/23 07:34:58;;;;;;;;;;;;;;;26.38;42.13;93732.63;4984693;28;7032;-61
2023/10/23 07:37:27;;;;;;;;;;;;;;;26.38;42.00;93727.09;4994886;28;9143;-60
2023/10/23 07:39:57;;;;;;;;;;;;;;;26.40;42.09;93727.31;5042334;28;9135;-61
2023/10/23 07:42:23;;;;;;;;;;;;;;;26.40;42.17;93719.78;5028565;28;8885;-61
2023/10/23 07:44:53;;;;;;;;;;;;;;;26.40;41.91;93714.28;5029761;28;7334;-61
2023/10/23 07:47:39;;;;;;;;;;;;;;;26.38;42.58;93714.03;5022577;28;9131;-61
2023/10/23 07:50:16;;;;;;;;;;;;;;;26.40;42.07;93719.78;5033433;28;7227;-61
2023/10/23 07:52:53;;;;;;;;;;;;;;;26.40;41.65;93716.28;5023943;28;9095;-61
2023/10/23 07:55:20;;;;;;;;;;;;;;;26.40;41.62;93714.28;5021182;28;8197;-61
2023/10/23 07:57:48;;;;;;;;;;;;;;;26.38;41.69;93716.78;5017940;28;7179;-61
2023/10/23 08:00:17;;;;;;;;;;;;;;;26.37;41.83;93711.81;5025254;28;8212;-61
2023/10/23 08:03:02;;;;;;;;;;;;;;;26.35;41.78;93708.84;5016369;28;7244;-61
2023/10/23 08:05:34;;;;;;;;;;;;;;;26.36;41.79;93713.81;5048900;28;8764;-61
2023/10/23 08:08:05;;;;;;;;;;;;;;;26.35;41.57;93717.88;5031953;28;7134;-61
2023/10/23 08:10:33;;;;;;;;;;;;;;;26.36;42.29;93732.41;5014996;28;7071;-61
2023/10/23 08:13:07;;;;;;;;;;;;;;;26.32;42.08;93724.44;5041116;28;8780;-61
2023/10/23 08:15:33;;;;;;;;;;;;;;;26.31;42.29;93731.25;5023710;28;9088;-61
2023/10/23 08:18:34;;;;;;;;;;;;;;;26.32;41.65;93745.78;5039167;28;7206;-61
2023/10/23 08:21:15;;;;;;;;;;;;;;;26.28;41.79;93750.84;4984423;28;7329;-61
2023/10/23 08:24:16;;;;;;;;;;;;;;;26.30;42.33;93775.88;4985652;28;7205;-65
2023/10/23 08:26:59;;;;;;;;;;;;;;;26.29;42.06;93796.44;4958451;28;7238;-65
2023/10/23 08:29:34;;;;;;;;;;;;;;;26.29;42.49;93790.94;4935093;28;8879;-64
2023/10/23 08:32:12;;;;;;;;;;;;;;;26.25;42.20;93793.28;4942303;28;9252;-65
2023/10/23 08:34:59;;;;;;;;;;;;;;;26.25;42.37;93787.75;4954613;28;7011;-65
2023/10/23 08:37:33;;;;;;;;;;;;;;;26.21;42.37;93790.81;4945382;28;7287;-65
2023/10/23 08:40:06;;;;;;;;;;;;;;;26.21;41.93;93790.09;4937870;28;7323;-65
2023/10/23 08:42:40;;;;;;;;;;;;;;;26.20;42.20;93805.13;4938591;28;7625;-65
2023/10/23 08:45:26;;;;;;;;;;;;;;;26.17;42.30;93793.91;4938876;28;7092;-65
2023/10/23 08:47:55;;;;;;;;;;;;;;;26.14;42.36;93791.47;4947729;28;9062;-65
2023/10/23 08:50:25;;;;;;;;;;;;;;;26.11;42.66;93784.25;4945523;28;7073;-65
2023/10/23 08:53:01;;;;;;;;;;;;;;;26.10;42.73;93779.97;4937364;28;7238;-64
2023/10/23 08:55:42;;;;;;;;;;;;;;;26.08;42.05;93772.25;4936724;28;7242;-65
2023/10/23 08:58:21;;;;;;;;;;;;;;;26.08;42.44;93758.47;4969122;28;6970;-65
2023/10/23 09:01:04;;;;;;;;;;;;;;;26.10;42.23;93741.41;4976108;28;7820;-65
2023/10/23 09:03:35;;;;;;;;;;;;;;;26.08;42.24;93727.38;5030847;28;7210;-65
2023/10/23 09:06:20;;;;;;;;;;;;;;;26.06;42.36;93718.91;5029641;28;8768;-65
2023/10/23 09:08:49;;;;;;;;;;;;;;;26.08;42.30;93719.13;5019863;28;9122;-64
2023/10/23 09:11:44;;;;;;;;;;;;;;;26.06;42.47;93705.88;5019005;28;7524;-65
2023/10/23 09:14:31;;;;;;;;;;;;;;;26.04;42.23;93702.91;5037058;28;7635;-65
2023/10/23 09:17:05;;;;;;;;;;;;;;;26.03;42.24;93715.19;5018172;28;7247;-65
2023/10/23 09:19:40;;;;;;;;;;;;;;;25.99;42.38;93709.25;5042092;28;7120;-64
2023/10/23 09:22:07;;;;;;;;;;;;;;;26.01;42.98;93701.19;5028995;28;8782;-64
2023/10/23 09:24:33;;;;;;;;;;;;;;;26.01;42.66;93697.72;5036517;28;7313;-65
2023/10/23 09:27:00;;;;;;;;;;;;;;;26.01;42.87;93706.00;5038183;28;7269;-65
2023/10/23 09:29:59;;;;;;;;;;;;;;;25.99;42.48;93701.00;5018719;28;6986;-64
2023/10/23 09:32:25;;;;;;;;;;;;;;;25.97;42.70;93706.28;4966600;28;9170;-64
2023/10/23 09:34:52;;;;;;;;;;;;;;;25.98;42.35;93705.03;4965359;28;9145;-60
2023/10/23 09:37:18;;;;;;;;;;;;;;;25.98;43.05;93691.25;4949073;28;7271;-60
2023/10/23 09:39:45;;;;;;;;;;;;;;;26.00;42.54;93698.97;4942761;28;7678;-60
2023/10/23 09:42:11;;;;;;;;;;;;;;;26.00;42.80;93696.22;4970055;28;8318;-60
2023/10/23 09:44:42;;;;;;;;;;;;;;;25.96;43.03;93699.31;4948823;29;7266;-60
2023/10/23 09:47:13;;;;;;;;;;;;;;;25.95;42.36;93692.31;4964237;28;9034;-60
2023/10/23 09:49:43;;;;;;;;;;;;;;;25.99;42.46;93694.75;4966092;28;7937;-60
2023/10/23 09:52:26;;;;;;;;;;;;;;;26.00;42.26;93699.72;4972132;28;6999;-60
2023/10/23 09:55:01;;;;;;;;;;;;;;;26.00;42.99;93688.72;4971539;28;9448;-60
2023/10/23 09:57:45;;;;;;;;;;;;;;;26.00;42.45;93688.72;4956672;28;7315;-60
2023/10/23 10:00:16;;;;;;;;;;;;;;;26.01;42.23;93681.19;4972955;28;7276;-61
2023/10/23 10:03:11;;;;;;;;;;;;;;;25.97;42.54;93667.72;4975460;28;7186;-60
2023/10/23 10:09:24;;;;;;;;;;;;;;;25.95;42.91;93669.50;5000019;28;6801;-61
2023/10/23 10:11:54;;;;;;;;;;;;;;;25.99;42.58;93681.69;5033614;28;7261;-60
2023/10/23 10:14:32;;;;;;;;;;;;;;;25.96;42.95;93699.31;5034712;28;7411;-60
2023/10/23 10:17:31;;;;;;;;;;;;;;;25.95;43.04;93703.31;5020586;28;7230;-60
2023/10/23 10:20:21;;;;;;;;;;;;;;;25.95;42.36;93697.81;4980934;28;7138;-60
2023/10/23 10:23:01;;;;;;;;;;;;;;;25.96;43.06;93702.06;4968038;28;9108;-60
2023/10/23 10:25:41;;;;;;;;;;;;;;;25.90;42.52;93690.38;4965181;28;9193;-60
2023/10/23 10:28:11;;;;;;;;;;;;;;;25.95;42.99;93689.53;4963090;28;7163;-60
2023/10/23 10:30:45;;;;;;;;;;;;;;;25.88;43.18;93698.44;4966585;28;8760;-60
2023/10/23 10:33:45;;;;;;;;;;;;;;;25.89;43.15;93716.47;4968862;28;9146;-60
2023/10/23 10:36:18;;;;;;;;;;;;;;;25.88;43.00;93701.19;4970480;28;7235;-60
2023/10/23 10:38:59;;;;;;;;;;;;;;;25.91;42.98;93699.41;4973062;28;9011;-60
2023/10/23 10:41:25;;;;;;;;;;;;;;;25.92;42.50;93703.66;4963089;28;9195;-60
2023/10/23 10:44:22;;;;;;;;;;;;;;;25.92;42.38;93709.16;4964807;28;7237;-65
2023/10/23 10:47:12;;;;;;;;;;;;;;;25.91;42.44;93685.63;4964115;28;7022;-65
2023/10/23 10:49:50;;;;;;;;;;;;;;;25.91;42.76;93647.06;4962016;28;7268;-65
2023/10/23 10:52:33;;;;;;;;;;;;;;;25.89;42.41;93644.84;4972465;28;8822;-65
2023/10/23 10:55:06;;;;;;;;;;;;;;;25.90;42.72;93660.06;4990013;28;9071;-65
2023/10/23 10:57:45;;;;;;;;;;;;;;;25.89;43.00;93661.38;5027803;28;7251;-65
2023/10/23 11:00:15;;;;;;;;;;;;;;;25.87;43.78;93641.13;5043998;28;7271;-65
2023/10/23 11:03:09;;;;;;;;;;;;;;;25.88;42.64;93628.84;5025727;28;8646;-65
2023/10/23 11:06:14;;;;;;;;;;;;;;;25.89;42.66;93628.31;5023282;28;7245;-65
2023/10/23 11:08:59;;;;;;;;;;;;;;;25.88;43.16;93615.78;4974301;28;9030;-65
2023/10/23 11:11:30;;;;;;;;;;;;;;;25.90;43.53;93615.28;4964624;28;7216;-65
2023/10/23 11:14:06;;;;;;;;;;;;;;;25.88;43.44;93612.31;4974413;28;7916;-65
2023/10/23 11:16:38;;;;;;;;;;;;;;;25.88;43.13;93615.06;4961404;28;6976;-65
2023/10/23 11:19:06;;;;;;;;;;;;;;;25.87;42.96;93614.31;4967704;28;7104;-65
2023/10/23 11:21:37;;;;;;;;;;;;;;;25.86;42.91;93601.81;4957083;28;7255;-65
2023/10/23 11:24:04;;;;;;;;;;;;;;;25.88;43.40;93595.78;4957661;28;7154;-65
2023/10/23 11:26:44;;;;;;;;;;;;;;;25.87;43.59;93589.53;4954237;28;7247;-65
2023/10/23 11:29:10;;;;;;;;;;;;;;;25.87;43.13;93583.28;4954344;28;8767;-65
2023/10/23 11:31:49;;;;;;;;;;;;;;;25.86;43.43;93585.28;4955827;28;7280;-65
2023/10/23 11:34:18;;;;;;;;;;;;;;;25.85;43.60;93585.81;4949972;28;9106;-65
2023/10/23 11:36:53;;;;;;;;;;;;;;;25.83;43.20;93575.34;4954194;28;7229;-65
2023/10/23 11:39:22;;;;;;;;;;;;;;;25.83;43.71;93563.56;4954789;28;7289;-65
2023/10/23 11:41:59;;;;;;;;;;;;;;;25.81;43.28;93558.59;4962848;28;7263;-65
2023/10/23 11:44:36;;;;;;;;;;;;;;;25.82;43.64;93554.56;5024690;28;7267;-65
2023/10/23 11:47:07;;;;;;;;;;;;;;;25.80;43.91;93553.59;5033844;28;9600;-65
2023/10/23 11:49:34;;;;;;;;;;;;;;;25.80;43.06;93542.59;5029464;28;6984;-65
2023/10/23 11:52:09;;;;;;;;;;;;;;;25.82;43.32;93529.75;5039932;28;8888;-65
2023/10/23 11:54:42;;;;;;;;;;;;;;;25.81;44.01;93522.78;5028392;28;8729;-61
2023/10/23 11:57:15;;;;;;;;;;;;;;;25.84;43.19;93521.72;5028132;28;6908;-61
2023/10/23 11:59:47;;;;;;;;;;;;;;;25.84;43.56;93515.44;5018726;28;8852;-61
2023/10/23 12:02:15;;;;;;;;;;;;;;;25.84;43.79;93505.19;5027340;28;7013;-61
2023/10/23 12:04:44;;;;;;;;;;;;;;;25.83;43.73;93498.22;5038091;28;7222;-61
2023/10/23 12:07:10;;;;;;;;;;;;;;;25.82;43.21;93496.72;5020973;28;7240;-61
2023/10/23 12:09:44;;;;;;;;;;;;;;;25.85;43.44;93495.66;5015552;28;8237;-62
2023/10/23 12:12:23;;;;;;;;;;;;;;;25.84;43.39;93480.38;5036933;28;7242;-62
2023/10/23 12:15:10;;;;;;;;;;;;;;;25.88;43.58;93474.56;5029080;28;7084;-62
2023/10/23 12:17:37;;;;;;;;;;;;;;;25.89;43.86;93467.75;5022782;28;7400;-62
2023/10/23 12:20:23;;;;;;;;;;;;;;;25.89;43.06;93468.50;5031827;28;7074;-61
2023/10/23 12:22:52;;;;;;;;;;;;;;;25.90;43.66;93469.25;5025322;28;7231;-62
2023/10/23 12:25:19;;;;;;;;;;;;;;;25.91;43.72;93463.22;5020953;28;8790;-62
2023/10/23 12:27:52;;;;;;;;;;;;;;;25.90;43.44;93450.69;5028634;28;7159;-62
2023/10/23 12:30:31;;;;;;;;;;;;;;;25.91;43.02;93445.94;5040243;28;7269;-62
2023/10/23 12:33:17;;;;;;;;;;;;;;;25.94;43.37;93459.41;5032652;28;9352;-61
2023/10/23 12:36:17;;;;;;;;;;;;;;;25.93;43.61;93457.91;5018157;28;7098;-62
2023/10/23 12:38:52;;;;;;;;;;;;;;;25.92;43.65;93453.69;4942599;28;7317;-62
2023/10/23 12:41:48;;;;;;;;;;;;;;;25.95;43.02;93444.31;4966545;28;7376;-61
2023/10/23 12:44:34;;;;;;;;;;;;;;;25.93;43.31;93432.34;4933215;28;7507;-61
2023/10/23 12:47:01;;;;;;;;;;;;;;;25.94;43.08;93431.09;4936528;28;9457;-61
2023/10/23 12:49:45;;;;;;;;;;;;;;;25.95;43.49;93419.53;4933884;28;6971;-62
2023/10/23 12:52:20;;;;;;;;;;;;;;;25.99;43.45;93416.47;4945862;28;9204;-62
2023/10/23 12:54:48;;;;;;;;;;;;;;;26.00;43.69;93412.41;4931225;28;7077;-61
2023/10/23 12:57:23;;;;;;;;;;;;;;;25.98;43.77;93401.94;4935899;28;7895;-61
2023/10/23 12:59:51;;;;;;;;;;;;;;;26.02;43.19;93387.81;4948209;28;9909;-61
2023/10/23 13:02:17;;;;;;;;;;;;;;;26.03;43.43;93372.78;4934493;28;7287;-61
2023/10/23 13:04:44;;;;;;;;;;;;;;;26.05;43.33;93379.22;4936492;28;9144;-62
2023/10/23 13:07:22;;;;;;;;;;;;;;;26.05;43.21;93370.97;4950391;28;7085;-62
2023/10/23 13:09:51;;;;;;;;;;;;;;;26.06;42.93;93375.19;4915290;28;7254;-62
2023/10/23 13:12:28;;;;;;;;;;;;;;;26.08;43.44;93375.41;4949179;28;9108;-61
2023/10/23 13:14:54;;;;;;;;;;;;;;;26.08;43.24;93358.88;4960196;28;9494;-62
2023/10/23 13:17:22;;;;;;;;;;;;;;;26.09;42.99;93354.13;4968740;28;6914;-61
2023/10/23 13:19:50;;;;;;;;;;;;;;;26.11;43.61;93359.81;4964137;28;9245;-62
2023/10/23 13:22:16;;;;;;;;;;;;;;;26.15;43.39;93352.69;5026203;28;7410;-61
2023/10/23 13:24:44;;;;;;;;;;;;;;;26.16;43.09;93348.66;5016845;28;7387;-62
2023/10/23 13:27:15;;;;;;;;;;;;;;;26.20;42.97;93355.84;5027838;28;9076;-62
2023/10/23 13:29:47;;;;;;;;;;;;;;;26.15;42.92;93341.66;5024839;28;8599;-61
2023/10/23 13:32:14;;;;;;;;;;;;;;;26.20;43.26;93336.56;5018087;28;7231;-62